• Join FlightAware (Why Join?)
  • Login
  • US Flag 
06:38PM EST


 

Airport Tracker/Info


-or-


 

Live Flight TrackerFlight Track Log ✈ JBU758 ✈ 30-Mar-2014 ✈ TNCA / AUA - KJFK

Flight Track Log - Related Links

Times and Time Zones

All times are in EDT time to prevent confusion due to time zone crossing. See the JBU758 flight status page for this flight to view local times or setup timezone preferences in your user account.

Time Position Orientation Groundspeed Altitude Reporting Facility
EDT Latitude Longitude Course Direction KTS MPH feet Rate Location/Type
05:15PM 12.6981 -69.8152 35° Northeast  Level FlightAware Approximate
05:16PM 12.8007 -69.7415 35° Northeast  Level FlightAware Approximate
05:17PM 12.9037 -69.6675 35° Northeast  Level FlightAware Approximate
05:18PM 13.0067 -69.5935 35° Northeast  Level FlightAware Approximate
05:19PM 13.1096 -69.5193 35° Northeast  Level FlightAware Approximate
05:20PM 13.2126 -69.4451 35° Northeast  Level FlightAware Approximate
05:21PM 13.3155 -69.3708 35° Northeast  Level FlightAware Approximate
05:22PM 13.4184 -69.2965 35° Northeast  Level FlightAware Approximate
05:23PM 13.5212 -69.2221 35° Northeast  Level FlightAware Approximate
05:24PM 13.6241 -69.1477 35° Northeast  Level FlightAware Approximate
05:25PM 12.6089 -69.9349 36° Northeast  Level FlightAware Approximate
05:26PM 12.7165 -69.8544 36° Northeast  Level FlightAware Approximate
05:27PM 12.8240 -69.7739 36° Northeast  Level FlightAware Approximate
05:28PM 12.9315 -69.6934 36° Northeast  Level FlightAware Approximate
05:29PM 13.0389 -69.6127 36° Northeast  Level FlightAware Approximate
05:30PM 13.1464 -69.5320 36° Northeast  Level FlightAware Approximate
05:31PM 13.2538 -69.4512 36° Northeast  Level FlightAware Approximate
05:32PM 13.3612 -69.3704 36° Northeast  Level FlightAware Approximate
05:33PM 13.4685 -69.2894 36° Northeast  Level FlightAware Approximate
05:34PM 13.5758 -69.2084 36° Northeast  Level FlightAware Approximate
05:35PM 13.6832 -69.1274 36° Northeast  Level FlightAware Approximate
05:36PM 13.7904 -69.0462 36° Northeast  Level FlightAware Approximate
05:37PM 13.8977 -68.9650 36° Northeast  Level FlightAware Approximate
05:38PM 14.0049 -68.8837 36° Northeast  Level FlightAware Approximate
05:39PM 14.1121 -68.8023 36° Northeast  Level FlightAware Approximate
05:40PM 14.2193 -68.7209 36° Northeast  Level FlightAware Approximate
05:41PM 14.3264 -68.6394 36° Northeast  Level FlightAware Approximate
05:42PM 14.4320 -68.5590 36° Northeast  Level FlightAware Approximate
05:43PM 14.5393 -68.4776 36° Northeast  Level FlightAware Approximate
05:44PM 14.6465 -68.3961 36° Northeast  Level FlightAware Approximate
05:45PM 14.7537 -68.3145 36° Northeast  Level FlightAware Approximate
05:46PM 14.8609 -68.2329 36° Northeast  Level FlightAware Approximate
05:47PM 14.9681 -68.1511 36° Northeast  Level FlightAware Approximate
05:48PM 15.0752 -68.0693 36° Northeast  Level FlightAware Approximate
05:49PM 15.1823 -67.9874 36° Northeast  Level FlightAware Approximate
05:50PM 15.2894 -67.9054 36° Northeast  Level FlightAware Approximate
05:50PM 16.0333 -67.4000 44° Northeast 480 552 33,000  Level San Juan Center
05:51PM 15.3964 -67.8233 36° Northeast  Level FlightAware Approximate
05:51PM 16.1500 -67.3667 15° North 470 541 33,000  Level San Juan Center
05:52PM 15.5034 -67.7411 36° Northeast  Level FlightAware Approximate
05:52PM 16.2833 -67.3500 North 470 541 33,000  Level San Juan Center
05:53PM 15.6104 -67.6589 37° Northeast  Level FlightAware Approximate
05:53PM 16.4167 -67.3167 13° North 470 541 33,000  Level San Juan Center
05:54PM 15.7174 -67.5766 37° Northeast  Level FlightAware Approximate
05:54PM 16.5333 -67.3000 North 460 529 33,000  Level San Juan Center
05:55PM 15.8235 -67.4932 44° Northeast  Level FlightAware Approximate
05:55PM 16.6667 -67.2667 13° North 460 529 33,000  Level San Juan Center
05:56PM 16.8000 -67.2500 North 450 518 33,000  Level San Juan Center
05:57PM 16.9167 -67.2167 15° North 450 518 33,000  Level San Juan Center
05:58PM 17.0333 -67.2000 North 450 518 33,000  Level San Juan Center
05:59PM 17.1667 -67.1667 13° North 460 529 33,000 180 Level San Juan Center
06:00PM 17.2833 -67.1500 North 460 529 33,400 480 Climbing San Juan Center
06:01PM 17.4167 -67.1167 13° North 450 518 34,000 240 Climbing San Juan Center
06:02PM 17.5333 -67.1000 North 450 518 34,000  Level San Juan Center
06:03PM 17.6667 -67.0667 13° North 450 518 34,000  Level San Juan Center
06:04PM 17.7833 -67.0500 North 450 518 34,000  Level San Juan Center
06:10PM 18.5517 -66.9012 11° North 448 516 34,000  Level FlightAware ADS-B (TNCM / SXM)
06:11PM 18.6486 -66.8812 11° North 448 516 34,000  Level FlightAware ADS-B (TNCM / SXM)
06:12PM 18.7833 -66.8500 11° North 450 518 34,100  Climbing San Juan Center
06:13PM 18.9167 -66.8167 13° North 450 518 34,100  Level San Juan Center
06:14PM 19.0333 -66.8000 North 440 506 34,100  Level San Juan Center
06:15PM 19.1500 -66.7667 15° North 440 506 34,100  Level San Juan Center
06:16PM 19.2500 -66.7500 North 430 495 34,100  Level San Juan Center
06:17PM 19.3667 -66.7167 15° North 440 506 34,100  Level San Juan Center
06:18PM 19.5000 -66.7000 North 430 495 34,100  Level San Juan Center
06:19PM 19.6167 -66.6667 15° North 430 495 34,100 60 Level San Juan Center
06:20PM 19.7333 -66.6500 North 430 495 34,300 480 Climbing San Juan Center
06:21PM 19.8500 -66.6167 15° North 430 495 35,100 660 Climbing San Juan Center
06:22PM 19.9833 -66.6000 North 430 495 35,700 420 Climbing San Juan Center
06:23PM 20.1000 -66.5667 15° North 420 483 36,000 120 Climbing San Juan Center
06:24PM 20.2167 -66.5500 North 430 495 36,000  Level San Juan Center
06:25PM 20.3333 -66.5167 15° North 420 483 36,000  Level San Juan Center
06:26PM 20.4500 -66.5000 North 430 495 36,000  Level San Juan Center
06:27PM 20.5667 -66.4667 15° North 420 483 36,000  Level San Juan Center
06:28PM 20.6833 -66.4500 North 430 495 36,000  Level San Juan Center
06:29PM 20.8000 -66.4167 15° North 420 483 36,000  Level San Juan Center
06:30PM 20.9167 -66.4000 North 420 483 36,000  Level San Juan Center
06:31PM 21.0333 -66.3667 15° North 420 483 36,000  Level San Juan Center
06:32PM 21.1500 -66.3333 15° North 430 495 36,000  Level San Juan Center
06:33PM 21.2667 -66.3167 North 420 483 36,000  Level San Juan Center
06:34PM 21.3833 -66.2833 15° North 410 472 36,000  Level San Juan Center
06:35PM 21.5000 -66.2667 North 410 472 36,000  Level San Juan Center
06:36PM 21.6167 -66.2333 15° North 420 483 36,000  Level San Juan Center
06:37PM 21.7333 -66.2167 North 450 518 36,000  Level San Juan Center
06:38PM 21.8333 -66.1833 17° North 400 460 36,000  Level San Juan Center
06:39PM 21.9500 -66.1500 15° North 450 518 36,000  Level San Juan Center
06:40PM 22.0833 -66.1500 360° North 420 483 36,000  Level San Juan Center
06:40PM 22.0333 -66.1667 349° North 407 468 36,000  Level New York Oceanic (ODAPS)
06:41PM 22.2000 -66.1833 349° North 430 495 36,000  Level San Juan Center
06:48PM 22.9167 -66.3500 349° North 422 486 36,000  Level New York Oceanic (ODAPS)
07:24PM 27.0833 -67.2500 349° North 451 519 36,000  Level New York Oceanic (ODAPS)
07:25PM 27.4602 -67.3221 349° North 422 486 36,000  Level FlightAware Transoceanic
07:26PM 27.5797 -67.3487 349° North 422 486 36,000  Level FlightAware Transoceanic
07:27PM 27.6991 -67.3754 349° North 422 486 36,000  Level FlightAware Transoceanic
07:28PM 27.8186 -67.4021 349° North 422 486 36,000  Level FlightAware Transoceanic
07:29PM 27.9381 -67.4289 349° North 422 486 36,000  Level FlightAware Transoceanic
07:30PM 27.9472 -67.4402 349° North 451 519 36,000  Level FlightAware Transoceanic
07:31PM 28.0706 -67.4676 349° North 451 519 36,000  Level FlightAware Transoceanic
07:32PM 28.1940 -67.4951 349° North 451 519 36,000  Level FlightAware Transoceanic
07:33PM 28.3174 -67.5226 349° North 451 519 36,000  Level FlightAware Transoceanic
07:34PM 28.4408 -67.5502 349° North 451 519 36,000  Level FlightAware Transoceanic
07:35PM 28.5641 -67.5779 349° North 451 519 36,000  Level FlightAware Transoceanic
07:36PM 28.6875 -67.6057 349° North 451 519 36,000  Level FlightAware Transoceanic
07:37PM 28.8109 -67.6335 349° North 451 519 36,000  Level FlightAware Transoceanic
07:38PM 28.9342 -67.6613 349° North 451 519 36,000  Level FlightAware Transoceanic
07:39PM 29.0576 -67.6893 349° North 451 519 36,000  Level FlightAware Transoceanic
07:40PM 29.1809 -67.7173 349° North 451 519 36,000  Level FlightAware Transoceanic
07:41PM 29.3042 -67.7453 349° North 451 519 36,000  Level FlightAware Transoceanic
07:42PM 29.4276 -67.7735 349° North 451 519 36,000  Level FlightAware Transoceanic
07:43PM 29.5509 -67.8017 349° North 451 519 36,000  Level FlightAware Transoceanic
07:44PM 29.6742 -67.8299 349° North 451 519 36,000  Level FlightAware Transoceanic
07:45PM 29.7975 -67.8583 349° North 451 519 36,000  Level FlightAware Transoceanic
07:46PM 29.9208 -67.8867 349° North 451 519 36,000  Level FlightAware Transoceanic
07:47PM 30.0441 -67.9152 349° North 451 519 36,000  Level FlightAware Transoceanic
07:48PM 30.1674 -67.9437 349° North 451 519 36,000  Level FlightAware Transoceanic
07:49PM 30.2907 -67.9724 349° North 451 519 36,000  Level FlightAware Transoceanic
07:50PM 30.4140 -68.0011 349° North 451 519 36,000  Level FlightAware Transoceanic
07:51PM 30.5373 -68.0298 349° North 451 519 36,000  Level FlightAware Transoceanic
07:52PM 30.6605 -68.0587 349° North 451 519 36,000  Level FlightAware Transoceanic
07:53PM 30.7838 -68.0876 349° North 451 519 36,000  Level FlightAware Transoceanic
07:54PM 30.9070 -68.1166 349° North 451 519 36,000  Level FlightAware Transoceanic
07:55PM 31.0303 -68.1457 349° North 451 519 36,000  Level FlightAware Transoceanic
07:56PM 31.1535 -68.1748 349° North 451 519 36,000  Level FlightAware Transoceanic
07:57PM 31.2768 -68.2040 349° North 451 519 36,000  Level FlightAware Transoceanic
07:58PM 31.4000 -68.2333 348° North 451 519 36,000  Level FlightAware Transoceanic
07:59PM 31.5362 -68.2665 348° North 451 519 36,000  Level FlightAware Transoceanic
08:00PM 31.6724 -68.2998 348° North 451 519 36,000  Level FlightAware Transoceanic
08:01PM 31.8086 -68.3331 348° North 451 519 36,000  Level FlightAware Transoceanic
08:02PM 31.9447 -68.3666 348° North 451 519 36,000  Level FlightAware Transoceanic
08:03PM 32.0809 -68.4001 348° North 451 519 36,000  Level FlightAware Transoceanic
08:04PM 32.2170 -68.4338 348° North 451 519 36,000  Level FlightAware Transoceanic
08:05PM 32.3532 -68.4675 348° North 451 519 36,000  Level FlightAware Transoceanic
08:06PM 32.4893 -68.5014 348° North 451 519 36,000  Level FlightAware Transoceanic
08:07PM 32.6254 -68.5354 348° North 451 519 36,000  Level FlightAware Transoceanic
08:08PM 32.7616 -68.5694 348° North 451 519 36,000  Level FlightAware Transoceanic
08:09PM 32.8977 -68.6036 348° North 451 519 36,000  Level FlightAware Transoceanic
08:10PM 33.0337 -68.6379 348° North 451 519 36,000  Level FlightAware Transoceanic
08:11PM 33.1698 -68.6722 348° North 451 519 36,000  Level FlightAware Transoceanic
08:12PM 33.3059 -68.7067 348° North 451 519 36,000  Level FlightAware Transoceanic
08:13PM 33.4420 -68.7413 348° North 451 519 36,000  Level FlightAware Transoceanic
08:14PM 33.5780 -68.7760 348° North 451 519 36,000  Level FlightAware Transoceanic
08:15PM 33.7141 -68.8108 348° North 451 519 36,000  Level FlightAware Transoceanic
08:16PM 33.8501 -68.8458 348° North 451 519 36,000  Level FlightAware Transoceanic
08:17PM 33.9862 -68.8808 348° North 451 519 36,000  Level FlightAware Transoceanic
08:18PM 34.1222 -68.9159 348° North 451 519 36,000  Level FlightAware Transoceanic
08:19PM 34.2582 -68.9512 348° North 451 519 36,000  Level FlightAware Transoceanic
08:20PM 34.3942 -68.9866 348° North 451 519 36,000  Level FlightAware Transoceanic
08:21PM 34.5302 -69.0221 348° North 451 519 36,000  Level FlightAware Transoceanic
08:22PM 34.6661 -69.0577 348° North 451 519 36,000  Level FlightAware Transoceanic
08:23PM 34.8021 -69.0934 348° North 451 519 36,000  Level FlightAware Transoceanic
08:24PM 34.9381 -69.1292 348° North 451 519 36,000  Level FlightAware Transoceanic
08:25PM 35.0740 -69.1652 348° North 451 519 36,000  Level FlightAware Transoceanic
08:26PM 35.2100 -69.2013 348° North 451 519 36,000  Level FlightAware Transoceanic
08:27PM 35.3459 -69.2375 348° North 451 519 36,000  Level FlightAware Transoceanic
08:28PM 35.4818 -69.2738 348° North 451 519 36,000  Level FlightAware Transoceanic
08:29PM 35.6177 -69.3102 348° North 451 519 36,000  Level FlightAware Transoceanic
08:30PM 35.7536 -69.3468 348° North 451 519 36,000  Level FlightAware Transoceanic
08:31PM 35.8895 -69.3835 348° North 451 519 36,000  Level FlightAware Transoceanic
08:32PM 36.0253 -69.4203 348° North 451 519 36,000  Level FlightAware Transoceanic
08:33PM 36.1612 -69.4573 348° North 451 519 36,000  Level FlightAware Transoceanic
08:34PM 36.2971 -69.4944 348° North 451 519 36,000  Level FlightAware Transoceanic
08:34PM 36.1667 -69.4500 347° North 532 612 36,000  Level New York Oceanic (ODAPS)
08:44PM 37.7156 -69.8508 298° West 448 516 36,000  Level New York Center
08:45PM 37.9003 -69.9405 347° North 532 612 36,000  Level FlightAware Transoceanic
08:45PM 37.8536 -69.8992 345° North 483 556 36,000  Level New York Center
08:46PM 38.0446 -69.9824 347° North 532 612 36,000  Level FlightAware Transoceanic
08:46PM 37.9894 -69.9397 347° North 497 572 36,000  Level New York Center
08:47PM 38.1890 -70.0244 347° North 532 612 36,000 60 Level FlightAware Transoceanic
08:47PM 38.0944 -70.0442 322° Northwest 487 560 36,100  Climbing New York Center
08:48PM 38.3333 -70.0667 298° West 532 612 36,000 -120 Descending FlightAware Transoceanic
08:48PM 38.1661 -70.1731 305° West 450 518 36,000  Level New York Center
08:49PM 38.2375 -70.2994 306° West 444 511 36,000  Level New York Center
08:50PM 38.3047 -70.4314 303° West 444 511 36,000  Level New York Center
08:51PM 38.3778 -70.5633 305° West 449 517 36,000  Level New York Center
08:52PM 38.4447 -70.6983 302° West 454 522 36,000  Level New York Center
08:53PM 38.5156 -70.8364 303° West 459 528 36,000  Level New York Center
08:54PM 38.5861 -70.9772 303° West 464 534 36,000  Level New York Center
08:55PM 38.6589 -71.1106 305° West 464 534 36,000  Level New York Center
08:56PM 38.7269 -71.2653 299° West 470 541 36,000  Level New York Center
08:57PM 38.8014 -71.3939 307° West 470 541 36,000 -240 Level New York Center
08:58PM 38.8736 -71.5278 305° West 465 535 35,600 -780 Descending New York Center
08:59PM 38.9456 -71.6728 303° West 465 535 34,500 -1,920 Descending New York Center
09:00PM 39.0194 -71.8181 303° West 472 543 31,800 -2,400 Descending New York Center
09:01PM 39.0908 -71.9608 303° West 478 550 29,700 -1,980 Descending New York Center
09:02PM 39.1581 -72.0986 302° West 473 544 27,900 -1,800 Descending New York Center
09:03PM 39.2253 -72.2339 303° West 463 533 26,100 -1,800 Descending New York Center
09:04PM 39.2903 -72.3614 303° West 450 518 24,400 -1,800 Descending New York Center
09:05PM 39.3550 -72.4972 302° West 445 512 22,500 -1,800 Descending New York Center
09:06PM 39.4178 -72.6222 303° West 431 496 20,800 -1,680 Descending New York Center
09:07PM 39.4783 -72.7450 303° West 416 479 19,200 -1,800 Descending New York Center
09:08PM 39.5347 -72.8622 302° West 403 464 17,300 -1,800 Descending New York Center
09:09PM 39.5931 -72.9800 303° West 398 458 15,600 -1,620 Descending New York Center
09:10PM 39.6469 -73.0894 303° West 384 442 14,100 -1,200 Descending New York Center
09:11PM 39.6969 -73.1989 301° West 370 426 13,300 -900 Descending New York Center
09:12PM 39.7508 -73.3061 303° West 360 414 12,300 -960 Descending New York Center
09:13PM 39.8006 -73.4133 301° West 360 414 11,400 -900 Descending New York Center
09:14PM 39.8464 -73.5125 301° West 345 397 10,500 -900 Descending New York Center
09:15PM 39.8900 -73.6008 303° West 318 366 9,700 -840 Descending New York Center
09:16PM 39.9336 -73.6919 302° West 303 349 8,900 -420 Descending New York Center
09:17PM 39.9772 -73.7831 302° West 296 341 8,900  Level New York Center
09:18PM 40.0492 -73.8269 335° Northwest 258 297 9,000 -120 Climbing New York Center
09:19PM 40.1042 -73.7886 28° Northeast 215 247 8,700 -720 Descending New York Center
09:20PM 40.1436 -73.7169 54° Northeast 210 242 7,600 -1,200 Descending New York Center
09:21PM 40.1881 -73.6836 30° Northeast 208 239 6,300 -1,500 Descending New York Center
09:22PM 40.2342 -73.7564 310° West 157 181 4,700 -1,500 Descending New York Center
09:23PM 40.2678 -73.8283 301° West 226 260 3,300 -1,140 Descending New York Center
09:24PM 40.2953 -73.8950 298° West 240 276 2,500 -660 Descending New York Center
09:25PM 40.3269 -73.9589 303° West 208 239 2,000 -300 Descending New York Center
09:26PM 40.3664 -73.9664 352° North 159 183 2,000  Level New York Center
09:27PM 40.4108 -73.9411 23° Northeast 149 171 2,000  Level New York Center
09:28PM 40.4469 -73.9128 31° Northeast 157 181 2,000  Level New York Center
09:29PM 40.4853 -73.8844 29° Northeast 157 181 2,000  Level New York Center
09:30PM 40.5128 -73.8611 33° Northeast 146 168 2,000 -120 Level New York Center
09:31PM 40.5500 -73.8333 30° Northeast 129 148 1,800 -420 Descending New York TRACON
09:32PM 40.5833 -73.8000 37° Northeast 121 139 1,100 -720 Descending New York TRACON
09:33PM 40.6167 -73.7833 21° North 125 144 400 -720 Descending New York TRACON
09:35PM 40.6333 -73.7667 North  Level FlightAware Approximate
09:42PM 40.6398 -73.7789 305° West  Level Estimated